Terminal Aerodrome Forecast
Issued by NWS Cleveland, OH

Home | Current Version | Previous Version | Graphics & Text | Print | Product List | Glossary On
Versions: 1 2 3 4 5 6 7 8 9 10 11 12 13 14 15 16 17 18 19 20 21
000
FTUS41 KCLE 280200 AAB
TAFYNG
TAF AMD
KYNG 280258Z 2803/2824 33003KT 6SM -SHRA SCT020 OVC080
     FM280500 29006KT P6SM OVC015
     FM280800 29006KT 5SM BR OVC012
     FM281200 31010KT 5SM BR OVC005
     FM281600 31012G20KT P6SM OVC015=

USA.gov is the U.S. government's official web portal to all federal, state and local government web resources and services.